DLH25 EDLW-EDDV
Flight info
| Callsign | DLH25 |
|---|---|
| Flight time | 0h 25m |
| Altitude | 23000 |
| Route | HMM7Q HMM M170 ZEPHE T463 NIE NIE1L |
| Aircraft | A320/M-SDE3FGHIRWY/LB1 |
Departure
| Time | 2026-04-30 18:02 |
|---|---|
| Airport | Dortmund Airport (EDLW) |
Arrival
| Time | 2026-04-30 18:27 |
|---|---|
| Airport | Hannover Airport (EDDV) |
| Time | Latitude | Longitude | Altitude | Speed | Heading |
|---|---|---|---|---|---|
| 2026-04-30 17:42 | 51.51585 | 7.61284 | 434 ft | 0 kts | 332° |
| 2026-04-30 17:58 | 51.51586 | 7.61283 | 434 ft | 2 kts | 332° |
| 2026-04-30 17:59 | 51.51501 | 7.60795 | 416 ft | 16 kts | 240° |
| 2026-04-30 18:00 | 51.51396 | 7.60498 | 414 ft | 16 kts | 242° |
| 2026-04-30 18:00 | 51.51534 | 7.60374 | 411 ft | 20 kts | 61° |
| 2026-04-30 18:01 | 51.52074 | 7.61924 | 423 ft | 140 kts | 64° |
| 2026-04-30 18:02 | 51.53528 | 7.66230 | 2247 ft | 166 kts | 65° |
| 2026-04-30 18:02 | 51.54738 | 7.69662 | 2781 ft | 210 kts | 64° |
| 2026-04-30 18:03 | 51.55389 | 7.71509 | 3091 ft | 233 kts | 64° |
| 2026-04-30 18:04 | 51.57840 | 7.78404 | 5052 ft | 256 kts | 65° |
| 2026-04-30 18:05 | 51.64628 | 7.80155 | 8575 ft | 294 kts | 350° |
| 2026-04-30 18:06 | 51.72500 | 7.83269 | 11059 ft | 325 kts | 22° |
| 2026-04-30 18:07 | 51.82207 | 7.88521 | 12041 ft | 396 kts | 21° |
| 2026-04-30 18:08 | 51.90158 | 7.92803 | 13847 ft | 406 kts | 22° |
| 2026-04-30 18:09 | 52.00944 | 7.98954 | 15937 ft | 413 kts | 29° |
| 2026-04-30 18:10 | 52.09634 | 8.10927 | 17861 ft | 417 kts | 48° |
| 2026-04-30 18:11 | 52.15993 | 8.26692 | 18359 ft | 417 kts | 63° |
| 2026-04-30 18:11 | 52.20016 | 8.39040 | 16735 ft | 406 kts | 63° |
| 2026-04-30 18:12 | 52.23939 | 8.51082 | 15089 ft | 395 kts | 63° |
| 2026-04-30 18:13 | 52.26455 | 8.58813 | 13766 ft | 369 kts | 64° |
| 2026-04-30 18:13 | 52.29466 | 8.68139 | 11824 ft | 331 kts | 64° |
| 2026-04-30 18:14 | 52.31869 | 8.75604 | 10196 ft | 309 kts | 64° |
| 2026-04-30 18:15 | 52.34742 | 8.84557 | 8278 ft | 281 kts | 65° |
| 2026-04-30 18:15 | 52.37319 | 8.92621 | 6814 ft | 254 kts | 65° |
| 2026-04-30 18:16 | 52.38908 | 8.97599 | 5792 ft | 240 kts | 65° |
| 2026-04-30 18:16 | 52.40419 | 9.02344 | 4839 ft | 231 kts | 66° |
| 2026-04-30 18:17 | 52.41155 | 9.04668 | 4318 ft | 229 kts | 66° |
| 2026-04-30 18:17 | 52.41880 | 9.06955 | 3989 ft | 220 kts | 66° |
| 2026-04-30 18:17 | 52.43212 | 9.11151 | 3992 ft | 213 kts | 66° |
| 2026-04-30 18:18 | 52.43893 | 9.13321 | 3991 ft | 215 kts | 66° |
| 2026-04-30 18:18 | 52.44577 | 9.15498 | 3987 ft | 215 kts | 66° |
| 2026-04-30 18:18 | 52.45264 | 9.17674 | 3986 ft | 215 kts | 66° |
| 2026-04-30 18:18 | 52.45951 | 9.19847 | 3989 ft | 215 kts | 66° |
| 2026-04-30 18:19 | 52.46471 | 9.22113 | 3986 ft | 211 kts | 82° |
| 2026-04-30 18:19 | 52.46578 | 9.24496 | 3989 ft | 206 kts | 92° |
| 2026-04-30 18:19 | 52.46546 | 9.26770 | 3983 ft | 193 kts | 94° |
| 2026-04-30 18:19 | 52.46497 | 9.28867 | 4003 ft | 174 kts | 94° |
| 2026-04-30 18:20 | 52.46453 | 9.30718 | 4007 ft | 149 kts | 94° |
| 2026-04-30 18:20 | 52.46413 | 9.32344 | 3990 ft | 139 kts | 95° |
| 2026-04-30 18:20 | 52.46374 | 9.33914 | 3989 ft | 137 kts | 94° |
| 2026-04-30 18:20 | 52.46335 | 9.35481 | 3939 ft | 137 kts | 95° |
| 2026-04-30 18:21 | 52.46296 | 9.37042 | 3817 ft | 137 kts | 94° |
| 2026-04-30 18:21 | 52.46258 | 9.38603 | 3650 ft | 137 kts | 94° |
| 2026-04-30 18:21 | 52.46219 | 9.40155 | 3475 ft | 136 kts | 94° |
| 2026-04-30 18:21 | 52.46180 | 9.41705 | 3295 ft | 136 kts | 94° |
| 2026-04-30 18:22 | 52.46141 | 9.43249 | 3115 ft | 135 kts | 94° |
| 2026-04-30 18:22 | 52.46063 | 9.46314 | 2750 ft | 134 kts | 93° |
| 2026-04-30 18:22 | 52.46024 | 9.47846 | 2567 ft | 134 kts | 93° |
| 2026-04-30 18:23 | 52.45984 | 9.49377 | 2382 ft | 134 kts | 94° |
| 2026-04-30 18:23 | 52.45945 | 9.50900 | 2204 ft | 134 kts | 93° |
| 2026-04-30 18:23 | 52.45905 | 9.52418 | 2021 ft | 133 kts | 93° |
| 2026-04-30 18:23 | 52.45866 | 9.53929 | 1841 ft | 133 kts | 93° |
| 2026-04-30 18:24 | 52.45786 | 9.56961 | 1500 ft | 133 kts | 94° |
| 2026-04-30 18:24 | 52.45746 | 9.58468 | 1328 ft | 131 kts | 94° |
| 2026-04-30 18:24 | 52.45706 | 9.59962 | 1152 ft | 132 kts | 93° |
| 2026-04-30 18:25 | 52.45666 | 9.61459 | 968 ft | 132 kts | 94° |
| 2026-04-30 18:25 | 52.45585 | 9.64464 | 630 ft | 133 kts | 95° |
| 2026-04-30 18:25 | 52.45545 | 9.65968 | 440 ft | 131 kts | 94° |
| 2026-04-30 18:26 | 52.45463 | 9.68874 | 182 ft | 89 kts | 92° |
| 2026-04-30 18:26 | 52.45440 | 9.69673 | 179 ft | 63 kts | 93° |
| 2026-04-30 18:26 | 52.45424 | 9.70341 | 175 ft | 55 kts | 92° |
| 2026-04-30 18:27 | 52.45465 | 9.71095 | 182 ft | 15 kts | 21° |
| 2026-04-30 18:27 | 52.45556 | 9.71047 | 179 ft | 15 kts | 310° |